Time;durP1;ratioP1;P1;durP2;ratioP2;P2;SDS_P1;SDS_P2;PMS_P1;PMS_P2;Temp;Humidity;BMP_temperature;BMP_pressure;BME280_temperature;BME280_humidity;BME280_pressure;Samples;Min_cycle;Max_cycle;Signal;HPM_P1;HPM_P2
2023/07/30 00:01:16;;;;;;;;;;;;;;;22.72;100.00;97476.31;5042465;28;19926;-73
2023/07/30 00:03:42;;;;;;;;;;;;;;;22.73;100.00;97485.28;5043705;28;20009;-73
2023/07/30 00:06:09;;;;;;;;;;;;;;;22.72;100.00;97476.31;5045727;28;19964;-73
2023/07/30 00:08:35;;;;;;;;;;;;;;;22.70;100.00;97478.63;5045516;28;20378;-73
2023/07/30 00:11:03;;;;;;;;;;;;;;;22.62;100.00;97470.59;5024724;28;19925;-74
2023/07/30 00:13:29;;;;;;;;;;;;;;;22.65;100.00;97469.91;5042452;28;19979;-74
2023/07/30 00:15:55;;;;;;;;;;;;;;;22.66;100.00;97466.84;5050010;28;19953;-74
2023/07/30 00:18:22;;;;;;;;;;;;;;;22.70;100.00;97477.81;5045778;28;19932;-74
2023/07/30 00:20:48;;;;;;;;;;;;;;;22.57;100.00;97477.09;5043576;28;19964;-74
2023/07/30 00:23:14;;;;;;;;;;;;;;;22.57;100.00;97469.72;5024743;28;20478;-75
2023/07/30 00:25:41;;;;;;;;;;;;;;;22.55;100.00;97471.22;5043129;28;20021;-75
2023/07/30 00:28:09;;;;;;;;;;;;;;;22.57;100.00;97467.00;5045562;28;19929;-75
2023/07/30 00:30:35;;;;;;;;;;;;;;;22.46;100.00;97446.09;5045627;28;19932;-75
2023/07/30 00:33:01;;;;;;;;;;;;;;;22.47;100.00;97450.38;5042389;28;19932;-77
2023/07/30 00:35:28;;;;;;;;;;;;;;;22.53;100.00;97454.44;5024438;28;20411;-77
2023/07/30 00:37:54;;;;;;;;;;;;;;;22.60;100.00;97468.22;5027040;28;19932;-73
2023/07/30 00:40:20;;;;;;;;;;;;;;;22.47;100.00;97469.44;5045002;28;19925;-73
2023/07/30 00:42:47;;;;;;;;;;;;;;;22.41;100.00;97465.41;5048695;28;19979;-73
2023/07/30 00:45:15;;;;;;;;;;;;;;;22.47;100.00;97470.22;5029154;28;19932;-73
2023/07/30 00:47:41;;;;;;;;;;;;;;;22.49;100.00;97467.97;5045014;28;19968;-73
2023/07/30 00:50:09;;;;;;;;;;;;;;;22.45;100.00;97467.06;5044948;28;19936;-73
2023/07/30 00:52:35;;;;;;;;;;;;;;;22.24;100.00;97471.97;5044673;28;19957;-74
2023/07/30 00:55:02;;;;;;;;;;;;;;;22.33;100.00;97475.31;5041431;28;19971;-73
2023/07/30 00:57:29;;;;;;;;;;;;;;;22.31;100.00;97477.59;5041770;28;19949;-75
2023/07/30 00:59:56;;;;;;;;;;;;;;;22.35;100.00;97475.75;5044252;28;19929;-72
2023/07/30 01:02:24;;;;;;;;;;;;;;;22.37;100.00;97476.22;5046590;28;19957;-71
2023/07/30 01:04:51;;;;;;;;;;;;;;;22.22;100.00;97468.81;5042134;28;19957;-72
2023/07/30 01:07:18;;;;;;;;;;;;;;;22.23;100.00;97470.38;5040958;28;19984;-73
2023/07/30 01:09:44;;;;;;;;;;;;;;;22.30;100.00;97476.03;5024649;28;19984;-71
2023/07/30 01:12:10;;;;;;;;;;;;;;;22.41;100.00;97481.72;5044219;28;19925;-72
2023/07/30 01:14:38;;;;;;;;;;;;;;;22.46;100.00;97486.91;5043623;28;20038;-72
2023/07/30 01:17:05;;;;;;;;;;;;;;;22.33;100.00;97485.41;5045917;28;19969;-72
2023/07/30 01:19:33;;;;;;;;;;;;;;;22.35;100.00;97488.56;5040935;28;19964;-72
2023/07/30 01:22:00;;;;;;;;;;;;;;;22.29;100.00;97484.53;5032499;28;19926;-72
2023/07/30 01:24:27;;;;;;;;;;;;;;;22.31;100.00;97488.47;5014990;28;19953;-71
2023/07/30 01:26:56;;;;;;;;;;;;;;;22.35;100.00;97488.56;5032351;28;19929;-71
2023/07/30 01:29:25;;;;;;;;;;;;;;;22.09;100.00;97491.78;5014777;28;19965;-72
2023/07/30 01:31:55;;;;;;;;;;;;;;;21.87;100.00;97495.03;5032182;28;19952;-72
2023/07/30 01:34:23;;;;;;;;;;;;;;;21.93;100.00;97490.94;5022962;28;19992;-72
2023/07/30 01:36:50;;;;;;;;;;;;;;;22.03;100.00;97498.63;5042678;28;19993;-72
2023/07/30 01:39:18;;;;;;;;;;;;;;;22.20;100.00;97484.69;5044020;28;19967;-71
2023/07/30 01:41:44;;;;;;;;;;;;;;;22.21;100.00;97494.44;5042423;28;19976;-71
2023/07/30 01:44:10;;;;;;;;;;;;;;;21.96;100.00;97487.53;5022634;28;19932;-72
2023/07/30 01:46:37;;;;;;;;;;;;;;;22.05;100.00;97480.00;5048353;28;19952;-72
2023/07/30 01:49:03;;;;;;;;;;;;;;;21.98;100.00;97490.69;5040170;28;19960;-71
2023/07/30 01:51:30;;;;;;;;;;;;;;;22.08;100.00;97481.25;5022445;28;19933;-71
2023/07/30 01:53:56;;;;;;;;;;;;;;;22.16;100.00;97497.38;5043143;28;19956;-71
2023/07/30 01:56:24;;;;;;;;;;;;;;;22.24;100.00;97491.03;5043384;28;19996;-72
2023/07/30 01:58:50;;;;;;;;;;;;;;;22.30;100.00;97497.00;5041031;28;19925;-72
2023/07/30 02:01:16;;;;;;;;;;;;;;;22.29;100.00;97496.19;5039941;28;19975;-72
2023/07/30 02:03:43;;;;;;;;;;;;;;;21.86;100.00;97496.16;5023646;28;19993;-72
2023/07/30 02:06:11;;;;;;;;;;;;;;;21.39;100.00;97491.31;5043461;28;20359;-71
2023/07/30 02:08:37;;;;;;;;;;;;;;;21.60;100.00;97502.00;5043006;28;19925;-73
2023/07/30 02:11:04;;;;;;;;;;;;;;;21.50;100.00;97502.50;5039873;28;19932;-72
2023/07/30 02:13:31;;;;;;;;;;;;;;;21.35;100.00;97492.34;5021865;28;19926;-72
2023/07/30 02:15:58;;;;;;;;;;;;;;;21.61;100.00;97494.66;5048034;28;19956;-72
2023/07/30 02:18:24;;;;;;;;;;;;;;;21.81;100.00;97499.91;5025514;28;19925;-73
2023/07/30 02:20:50;;;;;;;;;;;;;;;22.01;100.00;97487.28;5040798;28;20016;-72
2023/07/30 02:23:17;;;;;;;;;;;;;;;22.10;100.00;97495.31;5039611;28;19925;-73
2023/07/30 02:25:43;;;;;;;;;;;;;;;22.19;100.00;97488.53;5040701;28;19968;-72
2023/07/30 02:28:10;;;;;;;;;;;;;;;22.26;100.00;97488.72;5042879;28;19971;-72
2023/07/30 02:30:38;;;;;;;;;;;;;;;22.32;100.00;97495.50;5024642;28;19925;-72
2023/07/30 02:33:04;;;;;;;;;;;;;;;22.34;100.00;97490.53;5039262;28;20020;-72
2023/07/30 02:35:30;;;;;;;;;;;;;;;22.32;100.00;97489.25;5043493;28;19931;-72
2023/07/30 02:37:57;;;;;;;;;;;;;;;22.27;100.00;97493.03;5047077;28;19990;-72
2023/07/30 02:40:23;;;;;;;;;;;;;;;22.34;100.00;97487.78;5021674;28;19932;-72
2023/07/30 02:42:49;;;;;;;;;;;;;;;22.38;100.00;97498.75;5041534;28;19972;-72
2023/07/30 02:45:16;;;;;;;;;;;;;;;22.38;100.00;97496.03;5042643;28;19931;-73
2023/07/30 02:47:44;;;;;;;;;;;;;;;22.38;100.00;97506.91;5042755;28;20005;-72
2023/07/30 02:50:10;;;;;;;;;;;;;;;22.28;100.00;97505.47;5042648;28;20531;-74
2023/07/30 02:52:37;;;;;;;;;;;;;;;22.16;100.00;97504.78;5042260;28;19925;-73
2023/07/30 02:55:03;;;;;;;;;;;;;;;22.27;100.00;97497.69;5039057;28;19925;-73
2023/07/30 02:57:30;;;;;;;;;;;;;;;22.01;100.00;97470.97;5039191;28;20003;-73
2023/07/30 02:59:56;;;;;;;;;;;;;;;21.93;100.00;97436.56;5024465;28;19961;-73
2023/07/30 03:02:22;;;;;;;;;;;;;;;21.97;100.00;97432.03;5042480;28;19992;-73
2023/07/30 03:04:50;;;;;;;;;;;;;;;21.98;100.00;97447.19;5022655;28;19997;-73
2023/07/30 03:07:18;;;;;;;;;;;;;;;22.02;100.00;97458.94;5038930;28;19981;-73
2023/07/30 03:09:44;;;;;;;;;;;;;;;21.82;100.00;97446.31;5022730;28;19926;-73
2023/07/30 03:12:10;;;;;;;;;;;;;;;21.50;100.00;97457.09;5042325;28;20008;-73
2023/07/30 03:14:37;;;;;;;;;;;;;;;21.69;100.00;97466.56;5041870;28;19988;-73
2023/07/30 03:17:04;;;;;;;;;;;;;;;21.67;100.00;97457.94;5043807;28;19967;-72
2023/07/30 03:19:31;;;;;;;;;;;;;;;21.77;100.00;97449.28;5038766;28;19932;-72
2023/07/30 03:21:58;;;;;;;;;;;;;;;21.88;100.00;97461.28;5041911;28;19985;-72
2023/07/30 03:24:25;;;;;;;;;;;;;;;22.00;100.00;97470.16;5043513;28;20495;-71
2023/07/30 03:26:51;;;;;;;;;;;;;;;22.08;100.00;97476.59;5026094;28;20019;-71
2023/07/30 03:29:17;;;;;;;;;;;;;;;22.08;100.00;97473.88;5042634;28;19985;-71
2023/07/30 03:31:44;;;;;;;;;;;;;;;22.10;100.00;97481.69;5043952;28;19925;-71
2023/07/30 03:34:10;;;;;;;;;;;;;;;22.11;100.00;97478.63;5046041;28;19929;-71
2023/07/30 03:36:36;;;;;;;;;;;;;;;22.17;100.00;97468.28;5045420;28;19972;-71
2023/07/30 03:39:04;;;;;;;;;;;;;;;21.95;100.00;97472.34;5042771;28;19960;-71
2023/07/30 03:41:30;;;;;;;;;;;;;;;21.96;100.00;97473.94;5042491;28;19996;-72
2023/07/30 03:43:57;;;;;;;;;;;;;;;21.96;100.00;97482.09;5045501;28;19961;-72
2023/07/30 03:46:23;;;;;;;;;;;;;;;22.01;100.00;97488.06;5050595;28;19925;-72
2023/07/30 03:48:50;;;;;;;;;;;;;;;22.06;100.00;97492.47;5043510;28;19929;-71
2023/07/30 03:51:16;;;;;;;;;;;;;;;22.10;100.00;97485.19;5042380;28;19949;-71
2023/07/30 03:53:42;;;;;;;;;;;;;;;22.15;100.00;97490.41;5043538;28;19925;-71
2023/07/30 03:56:10;;;;;;;;;;;;;;;22.20;100.00;97492.84;5027910;28;19988;-71
2023/07/30 03:58:36;;;;;;;;;;;;;;;22.23;100.00;97496.78;5043917;28;19929;-71
2023/07/30 04:01:03;;;;;;;;;;;;;;;22.21;100.00;97493.66;5042167;28;19974;-71
2023/07/30 04:03:29;;;;;;;;;;;;;;;22.19;100.00;97493.97;5041959;28;19985;-71
2023/07/30 04:05:55;;;;;;;;;;;;;;;22.16;100.00;97491.94;5044855;28;19955;-71
2023/07/30 04:08:22;;;;;;;;;;;;;;;22.15;100.00;97493.09;5045387;28;19997;-71
2023/07/30 04:10:48;;;;;;;;;;;;;;;22.15;100.00;97497.75;5043282;28;19932;-72
2023/07/30 04:13:16;;;;;;;;;;;;;;;22.12;100.00;97495.72;5041894;28;19925;-71
2023/07/30 04:15:42;;;;;;;;;;;;;;;22.08;100.00;97501.06;5047751;28;19971;-72
2023/07/30 04:18:08;;;;;;;;;;;;;;;22.10;100.00;97512.38;5045137;28;19988;-71
2023/07/30 04:20:35;;;;;;;;;;;;;;;22.17;100.00;97520.75;5044937;28;19925;-71
2023/07/30 04:23:01;;;;;;;;;;;;;;;22.15;100.00;97517.59;5041854;28;19971;-72
2023/07/30 04:25:28;;;;;;;;;;;;;;;22.19;100.00;97512.25;5041996;28;19960;-72
2023/07/30 04:27:54;;;;;;;;;;;;;;;22.11;100.00;97530.28;5044424;28;20310;-72
2023/07/30 04:30:22;;;;;;;;;;;;;;;22.03;100.00;97525.81;5045224;28;19929;-72
2023/07/30 04:32:48;;;;;;;;;;;;;;;22.11;100.00;97537.66;5043116;28;19928;-72
2023/07/30 04:35:14;;;;;;;;;;;;;;;22.13;100.00;97535.41;5023291;28;19932;-72
2023/07/30 04:37:41;;;;;;;;;;;;;;;22.12;100.00;97529.16;5025244;28;19948;-72
2023/07/30 04:40:08;;;;;;;;;;;;;;;21.81;100.00;97537.19;5045109;28;19960;-72
2023/07/30 04:42:35;;;;;;;;;;;;;;;21.62;100.00;97537.00;5026984;28;19925;-72
2023/07/30 04:45:01;;;;;;;;;;;;;;;21.72;100.00;97541.97;5042112;28;19925;-72
2023/07/30 04:47:29;;;;;;;;;;;;;;;21.82;100.00;97541.47;5045671;28;19932;-72
2023/07/30 04:49:55;;;;;;;;;;;;;;;21.91;100.00;97542.94;5044150;28;20023;-72
2023/07/30 04:52:21;;;;;;;;;;;;;;;21.97;100.00;97540.78;5044395;28;19988;-72
2023/07/30 04:54:48;;;;;;;;;;;;;;;21.97;100.00;97543.50;5042572;28;19925;-72
2023/07/30 04:57:14;;;;;;;;;;;;;;;22.01;100.00;97547.88;5023339;28;19926;-72
2023/07/30 04:59:40;;;;;;;;;;;;;;;22.04;100.00;97546.41;5042056;28;19929;-72
2023/07/30 05:02:07;;;;;;;;;;;;;;;22.11;100.00;97545.81;5044363;28;19925;-72
2023/07/30 05:04:34;;;;;;;;;;;;;;;22.18;100.00;97551.47;5044304;28;20539;-72
2023/07/30 05:07:01;;;;;;;;;;;;;;;22.17;100.00;97547.94;5032561;28;19997;-72
2023/07/30 05:09:27;;;;;;;;;;;;;;;22.05;100.00;97561.59;5015052;28;19925;-72
2023/07/30 05:11:54;;;;;;;;;;;;;;;22.01;100.00;97561.47;5032607;28;19926;-72
2023/07/30 05:14:20;;;;;;;;;;;;;;;22.08;100.00;97574.50;5032427;28;19930;-72
2023/07/30 05:16:46;;;;;;;;;;;;;;;22.04;100.00;97576.31;5045578;28;19984;-72
2023/07/30 05:19:13;;;;;;;;;;;;;;;21.89;100.00;97585.19;5040593;28;19965;-72
2023/07/30 05:21:40;;;;;;;;;;;;;;;21.67;100.00;97572.88;5023718;28;19993;-72
2023/07/30 05:24:08;;;;;;;;;;;;;;;21.32;100.00;97580.72;5043898;28;19968;-72
2023/07/30 05:26:34;;;;;;;;;;;;;;;21.45;100.00;97582.31;5043821;28;19925;-72
2023/07/30 05:29:01;;;;;;;;;;;;;;;21.58;100.00;97583.09;5040534;28;19926;-72
2023/07/30 05:31:27;;;;;;;;;;;;;;;21.67;100.00;97577.50;5040427;28;19955;-72
2023/07/30 05:33:53;;;;;;;;;;;;;;;21.71;100.00;97581.13;5025469;28;20066;-72
2023/07/30 05:36:21;;;;;;;;;;;;;;;21.83;100.00;97584.63;5043537;28;19929;-72
2023/07/30 05:38:48;;;;;;;;;;;;;;;21.89;100.00;97590.63;5041822;28;19960;-72
2023/07/30 05:41:15;;;;;;;;;;;;;;;21.99;100.00;97579.28;5040087;28;19953;-72
2023/07/30 05:43:41;;;;;;;;;;;;;;;22.11;100.00;97592.84;5041002;28;19957;-72
2023/07/30 05:46:08;;;;;;;;;;;;;;;22.09;100.00;97600.56;5048118;28;20331;-72
2023/07/30 05:48:34;;;;;;;;;;;;;;;22.15;100.00;97604.63;5043069;28;19984;-72
2023/07/30 05:51:02;;;;;;;;;;;;;;;22.12;100.00;97602.59;5021987;28;21288;-71
2023/07/30 05:53:28;;;;;;;;;;;;;;;22.10;100.00;97612.25;5040229;28;19964;-71
2023/07/30 05:55:56;;;;;;;;;;;;;;;22.13;100.00;97612.31;5042749;28;19989;-71
2023/07/30 05:58:23;;;;;;;;;;;;;;;22.11;100.00;97611.09;5025731;28;20020;-71
2023/07/30 06:00:49;;;;;;;;;;;;;;;22.13;100.00;97609.59;5041264;28;19984;-71
2023/07/30 06:03:15;;;;;;;;;;;;;;;22.09;100.00;97602.50;5039856;28;19984;-71
2023/07/30 06:05:42;;;;;;;;;;;;;;;21.85;100.00;97606.03;5023037;28;20000;-71
2023/07/30 06:08:08;;;;;;;;;;;;;;;21.85;100.00;97600.59;5043119;28;19996;-72
2023/07/30 06:10:35;;;;;;;;;;;;;;;21.80;100.00;97595.38;5025295;28;19926;-72
2023/07/30 06:13:03;;;;;;;;;;;;;;;21.93;100.00;97597.78;5039587;28;19957;-72
2023/07/30 06:15:29;;;;;;;;;;;;;;;21.99;100.00;97606.47;5043774;28;19936;-72
2023/07/30 06:17:56;;;;;;;;;;;;;;;21.91;100.00;97604.69;5042946;28;20002;-72
2023/07/30 06:20:22;;;;;;;;;;;;;;;21.97;100.00;97616.91;5042748;28;19926;-72
2023/07/30 06:22:48;;;;;;;;;;;;;;;21.99;100.00;97606.47;5040854;28;19989;-70
2023/07/30 06:25:15;;;;;;;;;;;;;;;22.04;100.00;97612.47;5039409;28;19960;-72
2023/07/30 06:27:41;;;;;;;;;;;;;;;21.98;100.00;97604.88;5040510;28;19929;-72
2023/07/30 06:30:09;;;;;;;;;;;;;;;21.93;100.00;97607.84;5042999;28;19925;-71
2023/07/30 06:32:36;;;;;;;;;;;;;;;22.04;100.00;97606.22;5042779;28;19955;-72
2023/07/30 06:35:02;;;;;;;;;;;;;;;21.93;100.00;97611.38;5039400;28;19975;-72
2023/07/30 06:37:29;;;;;;;;;;;;;;;22.01;100.00;97615.88;5039343;28;19925;-72
2023/07/30 06:39:55;;;;;;;;;;;;;;;22.27;100.00;97617.38;5024481;28;19932;-72
2023/07/30 06:42:21;;;;;;;;;;;;;;;22.63;100.00;97614.50;5042663;28;20001;-72
2023/07/30 06:44:48;;;;;;;;;;;;;;;22.41;100.00;97612.31;5040849;28;19992;-72
2023/07/30 06:47:15;;;;;;;;;;;;;;;22.40;100.00;97610.75;5026376;28;20012;-72
2023/07/30 06:49:42;;;;;;;;;;;;;;;22.50;100.00;97616.47;5040173;28;19956;-72
2023/07/30 06:52:08;;;;;;;;;;;;;;;22.35;100.00;97617.22;5042438;28;19967;-73
2023/07/30 06:54:34;;;;;;;;;;;;;;;22.34;100.00;97623.81;5042485;28;20137;-72
2023/07/30 06:57:01;;;;;;;;;;;;;;;22.33;100.00;97616.78;5038942;28;20020;-72
2023/07/30 06:59:27;;;;;;;;;;;;;;;22.23;100.00;97625.44;5021148;28;19925;-72
2023/07/30 07:01:54;;;;;;;;;;;;;;;22.36;100.00;97621.53;5023994;28;19952;-72
2023/07/30 07:04:21;;;;;;;;;;;;;;;22.32;100.00;97628.81;5042454;28;20488;-72
2023/07/30 07:06:48;;;;;;;;;;;;;;;22.15;100.00;97620.94;5022748;28;19925;-72
2023/07/30 07:09:14;;;;;;;;;;;;;;;22.38;100.00;97621.97;5038989;28;19925;-72
2023/07/30 07:11:40;;;;;;;;;;;;;;;22.22;100.00;97631.22;5039712;28;19969;-72
2023/07/30 07:14:07;;;;;;;;;;;;;;;22.22;100.00;97629.28;5042297;28;19925;-72
2023/07/30 07:16:33;;;;;;;;;;;;;;;22.14;100.00;97624.00;5047131;28;19981;-72
2023/07/30 07:18:59;;;;;;;;;;;;;;;22.13;100.00;97622.44;5030811;28;19993;-72
2023/07/30 07:21:27;;;;;;;;;;;;;;;22.19;100.00;97634.66;5013105;28;20020;-72
2023/07/30 07:23:53;;;;;;;;;;;;;;;22.06;100.00;97620.28;5013061;28;19952;-72
2023/07/30 07:26:20;;;;;;;;;;;;;;;22.21;100.00;97629.66;5021268;28;20323;-72
2023/07/30 07:28:46;;;;;;;;;;;;;;;22.26;100.00;97623.94;5030592;28;19984;-72
2023/07/30 07:31:12;;;;;;;;;;;;;;;22.20;100.00;97628.06;5026249;28;19951;-72
2023/07/30 07:33:40;;;;;;;;;;;;;;;22.22;100.00;97621.13;5041395;28;19971;-72
2023/07/30 07:36:07;;;;;;;;;;;;;;;22.09;100.00;97621.53;5038494;28;20361;-72
2023/07/30 07:38:35;;;;;;;;;;;;;;;22.35;100.00;97619.16;5020934;28;19926;-72
2023/07/30 07:41:01;;;;;;;;;;;;;;;22.40;100.00;97622.44;5030523;28;19969;-72
2023/07/30 07:43:28;;;;;;;;;;;;;;;22.45;100.00;97629.53;5030432;28;19977;-72
2023/07/30 07:45:54;;;;;;;;;;;;;;;22.38;100.00;97621.97;5038281;28;20031;-72
2023/07/30 07:48:21;;;;;;;;;;;;;;;22.33;100.00;97630.41;5041979;28;19973;-72
2023/07/30 07:50:47;;;;;;;;;;;;;;;22.27;100.00;97622.81;5040396;28;19925;-72
2023/07/30 07:53:14;;;;;;;;;;;;;;;22.22;100.00;97629.28;5038714;28;19937;-72
2023/07/30 07:55:41;;;;;;;;;;;;;;;22.28;100.00;97622.47;5039227;28;19961;-72
2023/07/30 07:58:08;;;;;;;;;;;;;;;22.46;100.00;97623.78;5041949;28;19992;-72
2023/07/30 08:00:34;;;;;;;;;;;;;;;22.37;100.00;97623.13;5041894;28;19925;-72
2023/07/30 08:03:00;;;;;;;;;;;;;;;22.49;100.00;97625.81;5030211;28;19925;-72
2023/07/30 08:05:27;;;;;;;;;;;;;;;22.50;100.00;97621.91;5030326;28;20001;-73
2023/07/30 08:07:53;;;;;;;;;;;;;;;22.52;100.00;97619.66;5030190;28;19961;-73
2023/07/30 08:10:20;;;;;;;;;;;;;;;22.38;100.00;97624.69;5022083;28;19985;-73
2023/07/30 08:12:48;;;;;;;;;;;;;;;22.51;100.00;97634.41;5016220;28;19932;-73
2023/07/30 08:15:15;;;;;;;;;;;;;;;22.59;100.00;97633.44;5036067;28;19948;-72
2023/07/30 08:17:41;;;;;;;;;;;;;;;22.51;100.00;97639.03;5045107;28;19955;-72
2023/07/30 08:20:08;;;;;;;;;;;;;;;22.31;100.00;97632.66;5045232;28;19992;-72
2023/07/30 08:22:34;;;;;;;;;;;;;;;22.29;100.00;97632.22;5045159;28;20012;-72
2023/07/30 08:25:01;;;;;;;;;;;;;;;22.31;100.00;97638.09;5041887;28;19964;-72
2023/07/30 08:27:27;;;;;;;;;;;;;;;22.28;100.00;97643.47;5041768;28;19925;-73
2023/07/30 08:29:55;;;;;;;;;;;;;;;22.26;100.00;97643.78;5044344;28;19953;-72
2023/07/30 08:32:21;;;;;;;;;;;;;;;22.44;100.00;97645.06;5027127;28;19996;-73
2023/07/30 08:34:47;;;;;;;;;;;;;;;22.48;100.00;97648.69;5043411;28;19989;-73
2023/07/30 08:37:14;;;;;;;;;;;;;;;22.40;100.00;97644.22;5041828;28;20020;-72
2023/07/30 08:39:40;;;;;;;;;;;;;;;22.46;100.00;97637.38;5041996;28;19925;-72
2023/07/30 08:42:06;;;;;;;;;;;;;;;22.49;100.00;97633.16;5045016;28;19956;-72
2023/07/30 08:44:33;;;;;;;;;;;;;;;22.54;100.00;97639.16;5044934;28;19928;-72
2023/07/30 08:47:00;;;;;;;;;;;;;;;22.56;100.00;97631.41;5046529;28;19989;-72
2023/07/30 08:49:28;;;;;;;;;;;;;;;22.88;100.00;97626.06;5023796;28;19925;-72
2023/07/30 08:51:54;;;;;;;;;;;;;;;22.96;100.00;97627.84;5043925;28;19926;-72
2023/07/30 08:54:21;;;;;;;;;;;;;;;23.07;100.00;97618.81;5044639;28;19976;-72
2023/07/30 08:56:48;;;;;;;;;;;;;;;23.12;100.00;97604.13;5042689;28;19920;-72
2023/07/30 08:59:15;;;;;;;;;;;;;;;23.14;100.00;97607.28;5041137;28;19926;-72
2023/07/30 09:01:43;;;;;;;;;;;;;;;23.25;100.00;97605.59;5041967;28;20012;-71
2023/07/30 09:04:11;;;;;;;;;;;;;;;23.39;100.00;97608.72;5044500;28;19925;-71
2023/07/30 09:06:38;;;;;;;;;;;;;;;23.35;100.00;97610.53;5043919;28;19925;-71
2023/07/30 09:09:05;;;;;;;;;;;;;;;23.18;100.00;97605.44;5041073;28;19932;-71
2023/07/30 09:11:31;;;;;;;;;;;;;;;23.30;100.00;97599.13;5040749;28;19957;-72
2023/07/30 09:13:58;;;;;;;;;;;;;;;23.24;100.00;97595.06;5043748;28;19925;-71
2023/07/30 09:16:25;;;;;;;;;;;;;;;23.33;100.00;97592.97;5049257;28;19968;-71
2023/07/30 09:18:53;;;;;;;;;;;;;;;23.25;100.00;97591.97;5041860;28;19985;-73
2023/07/30 09:21:20;;;;;;;;;;;;;;;23.16;100.00;97582.41;5041006;28;19925;-72
2023/07/30 09:23:47;;;;;;;;;;;;;;;23.41;100.00;97581.91;5025011;28;19976;-72
2023/07/30 09:26:14;;;;;;;;;;;;;;;23.38;100.00;97585.28;5044251;28;19932;-73
2023/07/30 09:28:40;;;;;;;;;;;;;;;23.41;100.00;97579.16;5043321;28;19971;-72
2023/07/30 09:31:08;;;;;;;;;;;;;;;23.30;100.00;97578.13;5040738;28;19925;-72
2023/07/30 09:33:34;;;;;;;;;;;;;;;23.17;100.00;97584.78;5022987;28;19960;-72
2023/07/30 09:36:02;;;;;;;;;;;;;;;23.11;100.00;97584.28;5022798;28;19971;-72
2023/07/30 09:38:32;;;;;;;;;;;;;;;23.11;100.00;97586.22;5040276;28;19988;-71
2023/07/30 09:41:01;;;;;;;;;;;;;;;23.29;100.00;97597.53;5026133;28;19925;-71
2023/07/30 09:43:29;;;;;;;;;;;;;;;23.41;100.00;97594.72;5043628;28;19960;-71
2023/07/30 09:46:01;;;;;;;;;;;;;;;23.34;100.00;97581.69;5043446;28;19936;-71
2023/07/30 09:48:28;;;;;;;;;;;;;;;23.44;100.00;97600.25;5025832;28;20008;-71
2023/07/30 09:50:54;;;;;;;;;;;;;;;23.43;100.00;97593.22;5041012;28;19972;-71
2023/07/30 09:53:21;;;;;;;;;;;;;;;23.20;100.00;97594.19;5022447;28;20034;-71
2023/07/30 09:55:48;;;;;;;;;;;;;;;22.97;100.00;97600.25;5041675;28;20358;-71
2023/07/30 09:58:15;;;;;;;;;;;;;;;22.51;100.00;97596.28;5043273;28;19965;-71
2023/07/30 10:00:41;;;;;;;;;;;;;;;22.49;100.00;97614.13;5042560;28;19936;-71
2023/07/30 10:03:08;;;;;;;;;;;;;;;22.58;100.00;97629.16;5039940;28;19929;-70
2023/07/30 10:05:36;;;;;;;;;;;;;;;22.75;100.00;97633.50;5039875;28;19964;-71
2023/07/30 10:08:04;;;;;;;;;;;;;;;22.74;100.00;97652.94;5039951;28;19944;-71
2023/07/30 10:10:31;;;;;;;;;;;;;;;22.55;100.00;97662.50;5039760;28;19960;-71
2023/07/30 10:13:01;;;;;;;;;;;;;;;22.49;100.00;97674.78;5042679;28;20017;-71
2023/07/30 10:15:27;;;;;;;;;;;;;;;22.53;100.00;97663.97;5042844;28;19924;-71
2023/07/30 10:17:53;;;;;;;;;;;;;;;22.54;100.00;97647.31;5042860;28;19930;-72
2023/07/30 10:20:24;;;;;;;;;;;;;;;22.52;100.00;97636.00;5025386;28;19988;-72
2023/07/30 10:22:54;;;;;;;;;;;;;;;22.52;100.00;97627.03;5040954;28;19988;-72
2023/07/30 10:25:27;;;;;;;;;;;;;;;22.58;100.00;97629.16;5039383;28;19936;-72
2023/07/30 10:27:53;;;;;;;;;;;;;;;22.59;100.00;97629.94;5041807;28;19930;-73
2023/07/30 10:30:21;;;;;;;;;;;;;;;22.67;100.00;97622.78;5042577;28;19925;-72
2023/07/30 10:33:02;;;;;;;;;;;;;;;22.75;100.00;97630.00;5040302;28;20011;-72
2023/07/30 10:35:41;;;;;;;;;;;;;;;22.86;100.00;97623.72;5021598;28;20331;-72
2023/07/30 10:38:14;;;;;;;;;;;;;;;22.87;100.00;97619.06;5021382;28;19937;-71
2023/07/30 10:40:41;;;;;;;;;;;;;;;22.79;100.00;97625.44;5039925;28;20032;-72
2023/07/30 10:43:14;;;;;;;;;;;;;;;22.79;100.00;97633.59;5042255;28;19967;-72
2023/07/30 10:45:50;;;;;;;;;;;;;;;22.68;100.00;97630.63;5042103;28;19926;-72
2023/07/30 10:48:16;;;;;;;;;;;;;;;22.89;100.00;97622.22;5042257;28;19925;-72
2023/07/30 10:50:43;;;;;;;;;;;;;;;22.81;100.00;97612.28;5041134;28;19964;-72
2023/07/30 10:53:09;;;;;;;;;;;;;;;22.89;100.00;97605.88;5021287;28;19968;-72
2023/07/30 10:55:36;;;;;;;;;;;;;;;22.88;100.00;97607.81;5039006;28;19926;-71
2023/07/30 10:58:02;;;;;;;;;;;;;;;22.72;100.00;97604.25;5042142;28;19984;-71
2023/07/30 11:00:28;;;;;;;;;;;;;;;22.99;100.00;97605.34;5024617;28;19988;-74
2023/07/30 11:02:56;;;;;;;;;;;;;;;23.00;100.00;97613.16;5039965;28;20047;-75
2023/07/30 11:05:24;;;;;;;;;;;;;;;23.09;100.00;97612.97;5039079;28;19994;-74
2023/07/30 11:07:51;;;;;;;;;;;;;;;23.16;100.00;97607.72;5023519;28;19925;-75
2023/07/30 11:10:18;;;;;;;;;;;;;;;23.27;100.00;97608.78;5024880;28;19989;-74
2023/07/30 11:12:44;;;;;;;;;;;;;;;23.28;100.00;97613.06;5041311;28;19956;-74
2023/07/30 11:15:11;;;;;;;;;;;;;;;23.42;100.00;97621.63;5023160;28;20016;-74
2023/07/30 11:17:39;;;;;;;;;;;;;;;23.04;100.00;97610.53;5042428;28;19925;-74
2023/07/30 11:20:08;;;;;;;;;;;;;;;23.16;100.00;97626.78;5042513;28;19964;-72
2023/07/30 11:22:34;;;;;;;;;;;;;;;23.05;100.00;97628.47;5024901;28;19952;-74
2023/07/30 11:25:05;;;;;;;;;;;;;;;23.02;100.00;97637.34;5013427;28;19981;-77
2023/07/30 11:27:45;;;;;;;;;;;;;;;22.95;100.00;97629.78;5013484;28;19926;-75
2023/07/30 11:30:11;;;;;;;;;;;;;;;22.91;100.00;97633.53;5023298;28;19957;-76
2023/07/30 11:32:37;;;;;;;;;;;;;;;23.31;100.00;97639.63;5039222;28;19960;-74
2023/07/30 11:35:05;;;;;;;;;;;;;;;23.42;100.00;97629.03;5042400;28;20674;-71
2023/07/30 11:37:33;;;;;;;;;;;;;;;23.09;100.00;97621.16;5042612;28;19931;-72
2023/07/30 11:40:00;;;;;;;;;;;;;;;23.18;100.00;97613.59;5038774;28;19926;-71
2023/07/30 11:42:29;;;;;;;;;;;;;;;23.01;100.00;97609.31;5038852;28;19926;-71
2023/07/30 11:44:56;;;;;;;;;;;;;;;23.25;100.00;97618.44;5042558;28;19929;-72
2023/07/30 11:47:23;;;;;;;;;;;;;;;23.37;100.00;97612.88;5042494;28;19961;-72
2023/07/30 11:49:55;;;;;;;;;;;;;;;23.31;100.00;97604.19;5026739;28;19929;-71
2023/07/30 11:52:22;;;;;;;;;;;;;;;23.13;100.00;97605.69;5046072;28;19988;-72
2023/07/30 11:55:00;;;;;;;;;;;;;;;23.27;100.00;97600.63;5026366;28;19972;-72
2023/07/30 11:57:33;;;;;;;;;;;;;;;23.17;100.00;97600.34;5042352;28;19968;-71
2023/07/30 12:00:00;;;;;;;;;;;;;;;23.13;100.00;97598.31;5045349;28;19982;-71
2023/07/30 12:02:26;;;;;;;;;;;;;;;23.38;100.00;97609.81;5046208;28;19967;-76
2023/07/30 12:04:53;;;;;;;;;;;;;;;23.47;100.00;97637.72;5042733;28;19967;-74
2023/07/30 12:07:23;;;;;;;;;;;;;;;23.22;100.00;97662.72;5042792;28;19936;-74
2023/07/30 12:09:50;;;;;;;;;;;;;;;23.21;100.00;97661.94;5044393;28;19937;-74
2023/07/30 12:12:17;;;;;;;;;;;;;;;23.19;100.00;97680.56;5046023;28;20470;-74
2023/07/30 12:14:44;;;;;;;;;;;;;;;23.00;100.00;97662.19;5027317;28;19925;-74
2023/07/30 12:17:10;;;;;;;;;;;;;;;22.93;100.00;97662.00;5047740;28;19972;-75
2023/07/30 12:19:37;;;;;;;;;;;;;;;22.99;100.00;97666.03;5042377;28;20443;-73
2023/07/30 12:22:03;;;;;;;;;;;;;;;23.12;100.00;97673.00;5046039;28;19948;-73
2023/07/30 12:24:30;;;;;;;;;;;;;;;22.99;100.00;97676.94;5046666;28;19924;-76
2023/07/30 12:26:57;;;;;;;;;;;;;;;23.19;100.00;97680.56;5025521;28;19925;-71
2023/07/30 12:29:25;;;;;;;;;;;;;;;23.20;100.00;97665.81;5042423;28;19925;-72
2023/07/30 12:31:55;;;;;;;;;;;;;;;23.23;100.00;97662.41;5044614;28;19968;-72
2023/07/30 12:34:23;;;;;;;;;;;;;;;23.43;100.00;97660.56;5044262;28;20303;-72